sensor_id;sensor_type;location;lat;lon;timestamp;P1;durP1;ratioP1;P2;durP2;ratioP2
68800;SDS011;55784;50.734;7.086;2023-01-30T00:00:24;11.83;;;3.57;;
68800;SDS011;55784;50.734;7.086;2023-01-30T00:02:50;11.07;;;3.43;;
68800;SDS011;55784;50.734;7.086;2023-01-30T00:05:15;11.53;;;3.50;;
68800;SDS011;55784;50.734;7.086;2023-01-30T00:07:40;10.95;;;3.17;;
68800;SDS011;55784;50.734;7.086;2023-01-30T00:10:06;9.60;;;3.13;;
68800;SDS011;55784;50.734;7.086;2023-01-30T00:12:31;9.70;;;3.43;;
68800;SDS011;55784;50.734;7.086;2023-01-30T00:14:57;9.83;;;2.90;;
68800;SDS011;55784;50.734;7.086;2023-01-30T00:17:22;8.60;;;3.20;;
68800;SDS011;55784;50.734;7.086;2023-01-30T00:19:47;9.43;;;3.07;;
68800;SDS011;55784;50.734;7.086;2023-01-30T00:22:13;9.57;;;3.00;;
68800;SDS011;55784;50.734;7.086;2023-01-30T00:24:38;9.48;;;2.83;;
68800;SDS011;55784;50.734;7.086;2023-01-30T00:27:03;9.50;;;3.20;;
68800;SDS011;55784;50.734;7.086;2023-01-30T00:29:28;10.07;;;3.30;;
68800;SDS011;55784;50.734;7.086;2023-01-30T00:31:56;8.97;;;2.80;;
68800;SDS011;55784;50.734;7.086;2023-01-30T00:34:21;8.50;;;2.65;;
68800;SDS011;55784;50.734;7.086;2023-01-30T00:36:47;9.70;;;3.00;;
68800;SDS011;55784;50.734;7.086;2023-01-30T00:39:12;9.20;;;2.83;;
68800;SDS011;55784;50.734;7.086;2023-01-30T00:41:37;9.90;;;3.07;;
68800;SDS011;55784;50.734;7.086;2023-01-30T00:44:21;9.32;;;3.10;;
68800;SDS011;55784;50.734;7.086;2023-01-30T00:47:05;8.73;;;2.77;;
68800;SDS011;55784;50.734;7.086;2023-01-30T00:49:32;9.90;;;3.10;;
68800;SDS011;55784;50.734;7.086;2023-01-30T00:51:58;9.10;;;2.90;;
68800;SDS011;55784;50.734;7.086;2023-01-30T00:54:23;9.27;;;3.10;;
68800;SDS011;55784;50.734;7.086;2023-01-30T00:56:48;9.80;;;3.00;;
68800;SDS011;55784;50.734;7.086;2023-01-30T00:59:14;11.25;;;3.65;;
68800;SDS011;55784;50.734;7.086;2023-01-30T01:01:42;9.82;;;3.10;;
68800;SDS011;55784;50.734;7.086;2023-01-30T01:04:10;9.93;;;3.30;;
68800;SDS011;55784;50.734;7.086;2023-01-30T01:06:36;9.40;;;3.13;;
68800;SDS011;55784;50.734;7.086;2023-01-30T01:09:03;9.55;;;3.20;;
68800;SDS011;55784;50.734;7.086;2023-01-30T01:11:29;9.48;;;3.22;;
68800;SDS011;55784;50.734;7.086;2023-01-30T01:13:55;10.80;;;3.63;;
68800;SDS011;55784;50.734;7.086;2023-01-30T01:16:22;9.05;;;3.28;;
68800;SDS011;55784;50.734;7.086;2023-01-30T01:18:48;11.07;;;3.42;;
68800;SDS011;55784;50.734;7.086;2023-01-30T01:21:14;10.87;;;3.17;;
68800;SDS011;55784;50.734;7.086;2023-01-30T01:23:39;10.07;;;3.30;;
68800;SDS011;55784;50.734;7.086;2023-01-30T01:26:05;9.90;;;3.43;;
68800;SDS011;55784;50.734;7.086;2023-01-30T01:28:30;10.20;;;3.40;;
68800;SDS011;55784;50.734;7.086;2023-01-30T01:30:56;9.67;;;3.20;;
68800;SDS011;55784;50.734;7.086;2023-01-30T01:33:25;11.10;;;3.57;;
68800;SDS011;55784;50.734;7.086;2023-01-30T01:35:54;12.30;;;4.07;;
68800;SDS011;55784;50.734;7.086;2023-01-30T01:38:20;9.93;;;3.50;;
68800;SDS011;55784;50.734;7.086;2023-01-30T01:40:45;10.77;;;3.50;;
68800;SDS011;55784;50.734;7.086;2023-01-30T01:43:26;11.30;;;3.47;;
68800;SDS011;55784;50.734;7.086;2023-01-30T01:45:55;11.32;;;3.85;;
68800;SDS011;55784;50.734;7.086;2023-01-30T01:48:27;10.77;;;3.70;;
68800;SDS011;55784;50.734;7.086;2023-01-30T01:51:10;11.30;;;3.78;;
68800;SDS011;55784;50.734;7.086;2023-01-30T01:53:49;10.18;;;3.50;;
68800;SDS011;55784;50.734;7.086;2023-01-30T01:56:17;10.88;;;3.90;;
68800;SDS011;55784;50.734;7.086;2023-01-30T01:58:46;10.02;;;3.42;;
68800;SDS011;55784;50.734;7.086;2023-01-30T02:01:18;10.37;;;3.67;;
68800;SDS011;55784;50.734;7.086;2023-01-30T02:03:44;11.05;;;3.70;;
68800;SDS011;55784;50.734;7.086;2023-01-30T02:06:13;10.83;;;3.40;;
68800;SDS011;55784;50.734;7.086;2023-01-30T02:08:42;10.88;;;3.65;;
68800;SDS011;55784;50.734;7.086;2023-01-30T02:13:45;10.95;;;3.53;;
68800;SDS011;55784;50.734;7.086;2023-01-30T02:16:11;10.77;;;3.55;;
68800;SDS011;55784;50.734;7.086;2023-01-30T02:18:37;10.47;;;3.53;;
68800;SDS011;55784;50.734;7.086;2023-01-30T02:35:26;9.95;;;3.40;;
68800;SDS011;55784;50.734;7.086;2023-01-30T02:46:11;10.02;;;3.42;;
68800;SDS011;55784;50.734;7.086;2023-01-30T02:48:45;10.35;;;3.40;;
68800;SDS011;55784;50.734;7.086;2023-01-30T02:51:36;9.37;;;3.07;;
68800;SDS011;55784;50.734;7.086;2023-01-30T02:54:01;9.80;;;3.30;;
68800;SDS011;55784;50.734;7.086;2023-01-30T02:56:41;8.65;;;2.90;;
68800;SDS011;55784;50.734;7.086;2023-01-30T02:59:17;9.50;;;2.80;;
68800;SDS011;55784;50.734;7.086;2023-01-30T03:02:02;8.93;;;2.90;;
68800;SDS011;55784;50.734;7.086;2023-01-30T03:07:27;10.85;;;3.13;;
68800;SDS011;55784;50.734;7.086;2023-01-30T03:13:09;10.38;;;2.92;;
68800;SDS011;55784;50.734;7.086;2023-01-30T03:15:44;7.72;;;2.53;;
68800;SDS011;55784;50.734;7.086;2023-01-30T03:18:13;8.97;;;2.80;;
68800;SDS011;55784;50.734;7.086;2023-01-30T03:20:41;9.05;;;2.88;;
68800;SDS011;55784;50.734;7.086;2023-01-30T03:23:07;7.80;;;2.60;;
68800;SDS011;55784;50.734;7.086;2023-01-30T03:25:32;7.63;;;2.58;;
68800;SDS011;55784;50.734;7.086;2023-01-30T03:28:01;9.65;;;2.80;;
68800;SDS011;55784;50.734;7.086;2023-01-30T03:30:27;9.88;;;2.92;;
68800;SDS011;55784;50.734;7.086;2023-01-30T03:32:52;8.07;;;2.80;;
68800;SDS011;55784;50.734;7.086;2023-01-30T03:35:18;9.00;;;2.90;;
68800;SDS011;55784;50.734;7.086;2023-01-30T03:37:43;8.90;;;2.90;;
68800;SDS011;55784;50.734;7.086;2023-01-30T03:40:10;8.93;;;2.75;;
68800;SDS011;55784;50.734;7.086;2023-01-30T03:42:40;8.35;;;2.70;;
68800;SDS011;55784;50.734;7.086;2023-01-30T03:45:06;7.83;;;2.63;;
68800;SDS011;55784;50.734;7.086;2023-01-30T03:47:31;7.68;;;2.40;;
68800;SDS011;55784;50.734;7.086;2023-01-30T03:49:57;7.90;;;2.63;;
68800;SDS011;55784;50.734;7.086;2023-01-30T03:52:22;9.23;;;2.70;;
68800;SDS011;55784;50.734;7.086;2023-01-30T03:54:47;8.82;;;2.70;;
68800;SDS011;55784;50.734;7.086;2023-01-30T03:57:12;7.60;;;2.53;;
68800;SDS011;55784;50.734;7.086;2023-01-30T03:59:38;9.10;;;2.70;;
68800;SDS011;55784;50.734;7.086;2023-01-30T04:02:03;9.17;;;2.70;;
68800;SDS011;55784;50.734;7.086;2023-01-30T04:04:29;8.83;;;2.83;;
68800;SDS011;55784;50.734;7.086;2023-01-30T04:06:54;7.50;;;2.50;;
68800;SDS011;55784;50.734;7.086;2023-01-30T04:09:19;8.00;;;2.87;;
68800;SDS011;55784;50.734;7.086;2023-01-30T04:11:44;9.00;;;2.60;;
68800;SDS011;55784;50.734;7.086;2023-01-30T04:14:10;8.53;;;2.40;;
68800;SDS011;55784;50.734;7.086;2023-01-30T04:16:35;8.30;;;2.57;;
68800;SDS011;55784;50.734;7.086;2023-01-30T04:19:00;7.20;;;2.20;;
68800;SDS011;55784;50.734;7.086;2023-01-30T04:21:26;8.17;;;2.10;;
68800;SDS011;55784;50.734;7.086;2023-01-30T04:23:51;7.13;;;2.13;;
68800;SDS011;55784;50.734;7.086;2023-01-30T04:26:16;7.47;;;2.30;;
68800;SDS011;55784;50.734;7.086;2023-01-30T04:28:42;7.57;;;2.23;;
68800;SDS011;55784;50.734;7.086;2023-01-30T04:31:08;8.27;;;2.30;;
68800;SDS011;55784;50.734;7.086;2023-01-30T04:33:34;8.73;;;2.70;;
68800;SDS011;55784;50.734;7.086;2023-01-30T04:36:00;8.10;;;2.10;;
68800;SDS011;55784;50.734;7.086;2023-01-30T04:38:27;6.85;;;2.17;;
68800;SDS011;55784;50.734;7.086;2023-01-30T04:40:55;7.00;;;2.33;;
68800;SDS011;55784;50.734;7.086;2023-01-30T04:43:21;7.45;;;2.20;;
68800;SDS011;55784;50.734;7.086;2023-01-30T04:45:48;9.30;;;2.40;;
68800;SDS011;55784;50.734;7.086;2023-01-30T04:48:15;7.68;;;2.53;;
68800;SDS011;55784;50.734;7.086;2023-01-30T04:50:42;9.07;;;2.50;;
68800;SDS011;55784;50.734;7.086;2023-01-30T04:53:08;7.57;;;2.40;;
68800;SDS011;55784;50.734;7.086;2023-01-30T04:55:34;7.38;;;2.17;;
68800;SDS011;55784;50.734;7.086;2023-01-30T04:58:00;7.47;;;2.10;;
68800;SDS011;55784;50.734;7.086;2023-01-30T05:00:25;9.43;;;2.60;;
68800;SDS011;55784;50.734;7.086;2023-01-30T05:02:51;7.67;;;2.17;;
68800;SDS011;55784;50.734;7.086;2023-01-30T05:05:16;7.60;;;2.10;;
68800;SDS011;55784;50.734;7.086;2023-01-30T05:07:42;8.27;;;2.30;;
68800;SDS011;55784;50.734;7.086;2023-01-30T05:10:08;7.80;;;2.30;;
68800;SDS011;55784;50.734;7.086;2023-01-30T05:12:34;7.45;;;2.30;;
68800;SDS011;55784;50.734;7.086;2023-01-30T05:14:59;8.07;;;2.13;;
68800;SDS011;55784;50.734;7.086;2023-01-30T05:17:25;7.50;;;2.50;;
68800;SDS011;55784;50.734;7.086;2023-01-30T05:19:51;8.90;;;2.50;;
68800;SDS011;55784;50.734;7.086;2023-01-30T05:22:17;8.15;;;2.15;;
68800;SDS011;55784;50.734;7.086;2023-01-30T05:24:42;10.10;;;2.60;;
68800;SDS011;55784;50.734;7.086;2023-01-30T05:27:07;7.83;;;2.13;;
68800;SDS011;55784;50.734;7.086;2023-01-30T05:29:32;8.13;;;2.70;;
68800;SDS011;55784;50.734;7.086;2023-01-30T05:31:58;8.73;;;2.37;;
68800;SDS011;55784;50.734;7.086;2023-01-30T05:34:23;8.73;;;2.60;;
68800;SDS011;55784;50.734;7.086;2023-01-30T05:36:48;7.73;;;2.60;;
68800;SDS011;55784;50.734;7.086;2023-01-30T05:39:14;7.73;;;2.40;;
68800;SDS011;55784;50.734;7.086;2023-01-30T05:41:39;9.93;;;2.77;;
68800;SDS011;55784;50.734;7.086;2023-01-30T05:44:04;8.90;;;2.53;;
68800;SDS011;55784;50.734;7.086;2023-01-30T05:46:30;8.30;;;2.60;;
68800;SDS011;55784;50.734;7.086;2023-01-30T05:48:55;8.88;;;2.58;;
68800;SDS011;55784;50.734;7.086;2023-01-30T05:51:22;7.83;;;2.70;;
68800;SDS011;55784;50.734;7.086;2023-01-30T05:53:49;8.50;;;2.55;;
68800;SDS011;55784;50.734;7.086;2023-01-30T05:56:21;10.03;;;3.07;;
68800;SDS011;55784;50.734;7.086;2023-01-30T05:59:11;9.85;;;3.00;;
68800;SDS011;55784;50.734;7.086;2023-01-30T06:01:48;9.93;;;2.90;;
68800;SDS011;55784;50.734;7.086;2023-01-30T06:04:22;10.00;;;3.60;;
68800;SDS011;55784;50.734;7.086;2023-01-30T06:10:25;9.73;;;3.00;;
68800;SDS011;55784;50.734;7.086;2023-01-30T06:16:09;10.60;;;3.20;;
68800;SDS011;55784;50.734;7.086;2023-01-30T06:18:48;8.80;;;3.00;;
68800;SDS011;55784;50.734;7.086;2023-01-30T06:21:49;9.45;;;3.10;;
68800;SDS011;55784;50.734;7.086;2023-01-30T06:24:26;9.38;;;2.97;;
68800;SDS011;55784;50.734;7.086;2023-01-30T06:29:38;9.35;;;2.78;;
68800;SDS011;55784;50.734;7.086;2023-01-30T06:32:12;7.87;;;2.67;;
68800;SDS011;55784;50.734;7.086;2023-01-30T06:34:51;7.80;;;2.45;;
68800;SDS011;55784;50.734;7.086;2023-01-30T06:37:34;8.18;;;2.45;;
68800;SDS011;55784;50.734;7.086;2023-01-30T06:46:45;7.43;;;2.00;;
68800;SDS011;55784;50.734;7.086;2023-01-30T06:49:10;6.93;;;1.93;;
68800;SDS011;55784;50.734;7.086;2023-01-30T06:51:38;7.70;;;2.30;;
68800;SDS011;55784;50.734;7.086;2023-01-30T06:54:04;6.67;;;1.93;;
68800;SDS011;55784;50.734;7.086;2023-01-30T06:56:32;5.95;;;1.60;;
68800;SDS011;55784;50.734;7.086;2023-01-30T06:58:57;6.00;;;1.50;;
68800;SDS011;55784;50.734;7.086;2023-01-30T07:01:22;5.17;;;1.30;;
68800;SDS011;55784;50.734;7.086;2023-01-30T07:03:48;5.07;;;1.13;;
68800;SDS011;55784;50.734;7.086;2023-01-30T07:06:13;4.38;;;1.00;;
68800;SDS011;55784;50.734;7.086;2023-01-30T07:08:38;4.67;;;1.00;;
68800;SDS011;55784;50.734;7.086;2023-01-30T07:11:05;5.70;;;1.10;;
68800;SDS011;55784;50.734;7.086;2023-01-30T07:13:30;5.03;;;0.90;;
68800;SDS011;55784;50.734;7.086;2023-01-30T07:15:55;4.27;;;0.90;;
68800;SDS011;55784;50.734;7.086;2023-01-30T07:18:21;3.83;;;0.90;;
68800;SDS011;55784;50.734;7.086;2023-01-30T07:20:47;4.57;;;0.90;;
68800;SDS011;55784;50.734;7.086;2023-01-30T07:23:13;4.65;;;1.05;;
68800;SDS011;55784;50.734;7.086;2023-01-30T07:25:38;4.03;;;0.80;;
68800;SDS011;55784;50.734;7.086;2023-01-30T07:28:04;4.33;;;0.90;;
68800;SDS011;55784;50.734;7.086;2023-01-30T07:30:30;5.07;;;0.90;;
68800;SDS011;55784;50.734;7.086;2023-01-30T07:32:58;3.70;;;0.80;;
68800;SDS011;55784;50.734;7.086;2023-01-30T07:35:25;4.10;;;0.90;;
68800;SDS011;55784;50.734;7.086;2023-01-30T07:37:52;5.22;;;0.70;;
68800;SDS011;55784;50.734;7.086;2023-01-30T07:40:18;3.37;;;0.60;;
68800;SDS011;55784;50.734;7.086;2023-01-30T07:42:54;3.95;;;0.80;;
68800;SDS011;55784;50.734;7.086;2023-01-30T07:45:23;3.85;;;0.80;;
68800;SDS011;55784;50.734;7.086;2023-01-30T07:47:49;3.00;;;0.70;;
68800;SDS011;55784;50.734;7.086;2023-01-30T07:50:14;2.90;;;0.60;;
68800;SDS011;55784;50.734;7.086;2023-01-30T07:52:40;3.85;;;0.70;;
68800;SDS011;55784;50.734;7.086;2023-01-30T07:55:05;2.47;;;0.60;;
68800;SDS011;55784;50.734;7.086;2023-01-30T07:57:31;3.80;;;0.73;;
68800;SDS011;55784;50.734;7.086;2023-01-30T07:59:56;3.37;;;0.60;;
68800;SDS011;55784;50.734;7.086;2023-01-30T08:02:21;3.53;;;0.60;;
68800;SDS011;55784;50.734;7.086;2023-01-30T08:04:48;2.13;;;0.40;;
68800;SDS011;55784;50.734;7.086;2023-01-30T08:07:13;3.27;;;0.60;;
68800;SDS011;55784;50.734;7.086;2023-01-30T08:09:38;3.15;;;0.60;;
68800;SDS011;55784;50.734;7.086;2023-01-30T08:12:04;2.88;;;0.60;;
68800;SDS011;55784;50.734;7.086;2023-01-30T08:14:29;2.60;;;0.50;;
68800;SDS011;55784;50.734;7.086;2023-01-30T08:16:55;3.63;;;0.70;;
68800;SDS011;55784;50.734;7.086;2023-01-30T08:19:21;4.25;;;0.77;;
68800;SDS011;55784;50.734;7.086;2023-01-30T08:21:46;4.40;;;0.97;;
68800;SDS011;55784;50.734;7.086;2023-01-30T08:24:12;5.77;;;1.00;;
68800;SDS011;55784;50.734;7.086;2023-01-30T08:26:37;5.33;;;1.10;;
68800;SDS011;55784;50.734;7.086;2023-01-30T08:29:02;3.90;;;0.83;;
68800;SDS011;55784;50.734;7.086;2023-01-30T08:31:27;4.07;;;1.10;;
68800;SDS011;55784;50.734;7.086;2023-01-30T08:33:53;4.47;;;1.10;;
68800;SDS011;55784;50.734;7.086;2023-01-30T08:36:18;5.70;;;1.13;;
68800;SDS011;55784;50.734;7.086;2023-01-30T08:38:44;5.60;;;1.30;;
68800;SDS011;55784;50.734;7.086;2023-01-30T08:41:09;7.13;;;1.70;;
68800;SDS011;55784;50.734;7.086;2023-01-30T08:43:34;9.03;;;2.40;;
68800;SDS011;55784;50.734;7.086;2023-01-30T08:46:00;7.87;;;2.17;;
68800;SDS011;55784;50.734;7.086;2023-01-30T08:48:26;7.47;;;1.80;;
68800;SDS011;55784;50.734;7.086;2023-01-30T08:50:51;6.60;;;2.10;;
68800;SDS011;55784;50.734;7.086;2023-01-30T08:53:17;7.40;;;2.22;;
68800;SDS011;55784;50.734;7.086;2023-01-30T08:55:43;7.80;;;2.37;;
68800;SDS011;55784;50.734;7.086;2023-01-30T08:58:09;6.55;;;2.10;;
68800;SDS011;55784;50.734;7.086;2023-01-30T09:00:34;9.67;;;2.60;;
68800;SDS011;55784;50.734;7.086;2023-01-30T09:03:00;9.30;;;2.60;;
68800;SDS011;55784;50.734;7.086;2023-01-30T09:05:26;10.40;;;3.20;;
68800;SDS011;55784;50.734;7.086;2023-01-30T09:07:52;11.73;;;3.80;;
68800;SDS011;55784;50.734;7.086;2023-01-30T09:10:17;12.38;;;3.70;;
68800;SDS011;55784;50.734;7.086;2023-01-30T09:12:42;13.17;;;3.83;;
68800;SDS011;55784;50.734;7.086;2023-01-30T09:15:08;12.23;;;3.60;;
68800;SDS011;55784;50.734;7.086;2023-01-30T09:17:34;12.15;;;3.67;;
68800;SDS011;55784;50.734;7.086;2023-01-30T09:19:59;13.00;;;3.70;;
68800;SDS011;55784;50.734;7.086;2023-01-30T09:22:25;12.83;;;3.27;;
68800;SDS011;55784;50.734;7.086;2023-01-30T09:24:50;11.80;;;3.73;;
68800;SDS011;55784;50.734;7.086;2023-01-30T09:27:15;12.27;;;3.93;;
68800;SDS011;55784;50.734;7.086;2023-01-30T09:29:41;11.02;;;3.50;;
68800;SDS011;55784;50.734;7.086;2023-01-30T09:32:06;11.07;;;3.90;;
68800;SDS011;55784;50.734;7.086;2023-01-30T09:34:31;10.90;;;3.30;;
68800;SDS011;55784;50.734;7.086;2023-01-30T09:36:57;10.83;;;3.07;;
68800;SDS011;55784;50.734;7.086;2023-01-30T09:39:27;11.68;;;3.08;;
68800;SDS011;55784;50.734;7.086;2023-01-30T09:42:05;10.63;;;2.57;;
68800;SDS011;55784;50.734;7.086;2023-01-30T09:48:08;10.05;;;2.38;;
68800;SDS011;55784;50.734;7.086;2023-01-30T09:53:22;11.27;;;2.75;;
68800;SDS011;55784;50.734;7.086;2023-01-30T09:55:56;10.30;;;3.07;;
68800;SDS011;55784;50.734;7.086;2023-01-30T09:58:22;11.77;;;3.30;;
68800;SDS011;55784;50.734;7.086;2023-01-30T10:00:53;11.80;;;3.75;;
68800;SDS011;55784;50.734;7.086;2023-01-30T10:03:42;10.32;;;3.40;;
68800;SDS011;55784;50.734;7.086;2023-01-30T10:06:22;11.23;;;3.42;;
68800;SDS011;55784;50.734;7.086;2023-01-30T10:22:32;9.88;;;3.15;;
68800;SDS011;55784;50.734;7.086;2023-01-30T10:27:56;10.70;;;2.75;;
68800;SDS011;55784;50.734;7.086;2023-01-30T10:30:27;10.80;;;3.03;;
68800;SDS011;55784;50.734;7.086;2023-01-30T10:32:57;11.98;;;3.17;;
68800;SDS011;55784;50.734;7.086;2023-01-30T10:35:34;11.48;;;2.67;;
68800;SDS011;55784;50.734;7.086;2023-01-30T10:41:43;8.80;;;2.00;;
68800;SDS011;55784;50.734;7.086;2023-01-30T10:44:44;12.43;;;2.35;;
68800;SDS011;55784;50.734;7.086;2023-01-30T10:50:48;11.63;;;1.88;;
68800;SDS011;55784;50.734;7.086;2023-01-30T10:56:17;8.02;;;1.60;;
68800;SDS011;55784;50.734;7.086;2023-01-30T10:58:50;12.45;;;1.90;;
68800;SDS011;55784;50.734;7.086;2023-01-30T11:01:24;11.32;;;1.70;;
68800;SDS011;55784;50.734;7.086;2023-01-30T11:03:56;9.90;;;2.00;;
68800;SDS011;55784;50.734;7.086;2023-01-30T11:06:31;10.40;;;2.10;;
68800;SDS011;55784;50.734;7.086;2023-01-30T11:08:57;10.85;;;1.90;;
68800;SDS011;55784;50.734;7.086;2023-01-30T11:14:12;8.05;;;1.70;;
68800;SDS011;55784;50.734;7.086;2023-01-30T11:16:50;8.52;;;1.50;;
68800;SDS011;55784;50.734;7.086;2023-01-30T11:19:19;11.23;;;1.88;;
68800;SDS011;55784;50.734;7.086;2023-01-30T11:21:51;9.85;;;1.80;;
68800;SDS011;55784;50.734;7.086;2023-01-30T11:24:19;11.55;;;1.55;;
68800;SDS011;55784;50.734;7.086;2023-01-30T11:26:47;10.63;;;1.73;;
68800;SDS011;55784;50.734;7.086;2023-01-30T11:31:57;14.57;;;1.90;;
68800;SDS011;55784;50.734;7.086;2023-01-30T11:34:26;9.38;;;1.88;;
68800;SDS011;55784;50.734;7.086;2023-01-30T11:36:52;10.43;;;1.70;;
68800;SDS011;55784;50.734;7.086;2023-01-30T11:39:18;11.18;;;1.88;;
68800;SDS011;55784;50.734;7.086;2023-01-30T11:44:28;12.25;;;2.05;;
68800;SDS011;55784;50.734;7.086;2023-01-30T11:46:57;11.15;;;1.58;;
68800;SDS011;55784;50.734;7.086;2023-01-30T11:49:54;10.00;;;1.70;;
68800;SDS011;55784;50.734;7.086;2023-01-30T11:52:33;10.23;;;1.70;;
68800;SDS011;55784;50.734;7.086;2023-01-30T11:55:02;10.97;;;1.60;;
68800;SDS011;55784;50.734;7.086;2023-01-30T11:57:46;11.13;;;1.90;;
68800;SDS011;55784;50.734;7.086;2023-01-30T12:00:21;10.70;;;2.10;;
68800;SDS011;55784;50.734;7.086;2023-01-30T12:02:51;11.35;;;1.70;;
68800;SDS011;55784;50.734;7.086;2023-01-30T12:05:23;10.68;;;1.55;;
68800;SDS011;55784;50.734;7.086;2023-01-30T12:07:54;10.53;;;1.80;;
68800;SDS011;55784;50.734;7.086;2023-01-30T12:10:41;7.47;;;1.55;;
68800;SDS011;55784;50.734;7.086;2023-01-30T12:13:21;9.70;;;1.83;;
68800;SDS011;55784;50.734;7.086;2023-01-30T12:16:08;14.13;;;1.77;;
68800;SDS011;55784;50.734;7.086;2023-01-30T12:30:35;9.68;;;2.03;;
68800;SDS011;55784;50.734;7.086;2023-01-30T12:33:08;14.45;;;1.80;;
68800;SDS011;55784;50.734;7.086;2023-01-30T12:40:56;13.75;;;1.95;;
68800;SDS011;55784;50.734;7.086;2023-01-30T12:43:37;16.88;;;2.45;;
68800;SDS011;55784;50.734;7.086;2023-01-30T12:46:44;9.10;;;1.75;;
68800;SDS011;55784;50.734;7.086;2023-01-30T13:07:49;9.23;;;1.50;;
68800;SDS011;55784;50.734;7.086;2023-01-30T13:13:31;12.25;;;1.63;;
68800;SDS011;55784;50.734;7.086;2023-01-30T13:22:06;10.98;;;1.63;;
68800;SDS011;55784;50.734;7.086;2023-01-30T13:27:33;10.57;;;1.40;;
68800;SDS011;55784;50.734;7.086;2023-01-30T13:30:03;7.73;;;1.30;;
68800;SDS011;55784;50.734;7.086;2023-01-30T13:32:42;11.43;;;1.65;;
68800;SDS011;55784;50.734;7.086;2023-01-30T13:35:15;9.90;;;1.63;;
68800;SDS011;55784;50.734;7.086;2023-01-30T13:37:44;9.65;;;1.50;;
68800;SDS011;55784;50.734;7.086;2023-01-30T13:40:14;10.85;;;1.50;;
68800;SDS011;55784;50.734;7.086;2023-01-30T13:45:23;8.73;;;1.42;;
68800;SDS011;55784;50.734;7.086;2023-01-30T13:48:18;15.60;;;1.50;;
68800;SDS011;55784;50.734;7.086;2023-01-30T13:53:49;12.65;;;1.48;;
68800;SDS011;55784;50.734;7.086;2023-01-30T14:01:20;16.35;;;2.30;;
68800;SDS011;55784;50.734;7.086;2023-01-30T14:03:47;8.80;;;1.63;;
68800;SDS011;55784;50.734;7.086;2023-01-30T14:08:54;7.87;;;1.03;;
68800;SDS011;55784;50.734;7.086;2023-01-30T14:11:41;11.00;;;1.77;;
68800;SDS011;55784;50.734;7.086;2023-01-30T14:16:51;12.18;;;1.38;;
68800;SDS011;55784;50.734;7.086;2023-01-30T14:19:35;12.45;;;1.63;;
68800;SDS011;55784;50.734;7.086;2023-01-30T14:22:03;13.60;;;1.90;;
68800;SDS011;55784;50.734;7.086;2023-01-30T14:24:41;11.00;;;1.70;;
68800;SDS011;55784;50.734;7.086;2023-01-30T14:27:24;11.90;;;1.63;;
68800;SDS011;55784;50.734;7.086;2023-01-30T14:29:53;13.20;;;1.77;;
68800;SDS011;55784;50.734;7.086;2023-01-30T14:37:28;12.77;;;2.00;;
68800;SDS011;55784;50.734;7.086;2023-01-30T14:54:01;11.98;;;1.90;;
68800;SDS011;55784;50.734;7.086;2023-01-30T14:56:38;9.77;;;1.77;;
68800;SDS011;55784;50.734;7.086;2023-01-30T15:01:55;13.80;;;1.70;;
68800;SDS011;55784;50.734;7.086;2023-01-30T15:04:31;14.10;;;1.77;;
68800;SDS011;55784;50.734;7.086;2023-01-30T15:07:04;11.45;;;1.83;;
68800;SDS011;55784;50.734;7.086;2023-01-30T15:09:34;11.57;;;1.50;;
68800;SDS011;55784;50.734;7.086;2023-01-30T15:27:10;13.98;;;2.05;;
68800;SDS011;55784;50.734;7.086;2023-01-30T15:29:54;9.35;;;1.42;;
68800;SDS011;55784;50.734;7.086;2023-01-30T15:32:23;10.88;;;1.80;;
68800;SDS011;55784;50.734;7.086;2023-01-30T15:35:33;11.77;;;1.63;;
68800;SDS011;55784;50.734;7.086;2023-01-30T15:37:49;16.00;;;2.10;;
68800;SDS011;55784;50.734;7.086;2023-01-30T15:40:18;10.82;;;1.35;;
68800;SDS011;55784;50.734;7.086;2023-01-30T15:48:18;13.45;;;1.85;;
68800;SDS011;55784;50.734;7.086;2023-01-30T15:50:56;12.70;;;1.90;;
68800;SDS011;55784;50.734;7.086;2023-01-30T15:53:27;11.20;;;2.15;;
68800;SDS011;55784;50.734;7.086;2023-01-30T15:55:56;12.43;;;2.00;;
68800;SDS011;55784;50.734;7.086;2023-01-30T15:58:23;11.88;;;2.22;;
68800;SDS011;55784;50.734;7.086;2023-01-30T16:00:52;12.00;;;1.70;;
68800;SDS011;55784;50.734;7.086;2023-01-30T16:03:21;14.13;;;2.30;;
68800;SDS011;55784;50.734;7.086;2023-01-30T16:05:50;12.63;;;2.08;;
68800;SDS011;55784;50.734;7.086;2023-01-30T16:08:23;14.20;;;2.55;;
68800;SDS011;55784;50.734;7.086;2023-01-30T16:10:50;13.25;;;1.90;;
68800;SDS011;55784;50.734;7.086;2023-01-30T16:13:16;15.23;;;2.17;;
68800;SDS011;55784;50.734;7.086;2023-01-30T16:15:47;12.88;;;2.35;;
68800;SDS011;55784;50.734;7.086;2023-01-30T16:21:24;13.02;;;1.98;;
68800;SDS011;55784;50.734;7.086;2023-01-30T16:26:44;11.53;;;2.40;;
68800;SDS011;55784;50.734;7.086;2023-01-30T16:29:13;12.60;;;1.50;;
68800;SDS011;55784;50.734;7.086;2023-01-30T16:31:42;12.95;;;1.92;;
68800;SDS011;55784;50.734;7.086;2023-01-30T16:36:55;10.05;;;1.88;;
68800;SDS011;55784;50.734;7.086;2023-01-30T16:42:03;13.98;;;2.10;;
68800;SDS011;55784;50.734;7.086;2023-01-30T16:44:46;13.68;;;2.15;;
68800;SDS011;55784;50.734;7.086;2023-01-30T16:47:24;13.93;;;2.20;;
68800;SDS011;55784;50.734;7.086;2023-01-30T16:49:53;15.38;;;2.30;;
68800;SDS011;55784;50.734;7.086;2023-01-30T16:52:21;13.10;;;2.25;;
68800;SDS011;55784;50.734;7.086;2023-01-30T16:54:56;14.10;;;2.33;;
68800;SDS011;55784;50.734;7.086;2023-01-30T16:59:52;12.93;;;2.03;;
68800;SDS011;55784;50.734;7.086;2023-01-30T17:02:40;12.98;;;1.85;;
68800;SDS011;55784;50.734;7.086;2023-01-30T17:05:10;11.63;;;1.92;;
68800;SDS011;55784;50.734;7.086;2023-01-30T17:07:48;13.52;;;1.70;;
68800;SDS011;55784;50.734;7.086;2023-01-30T17:13:03;12.38;;;2.40;;
68800;SDS011;55784;50.734;7.086;2023-01-30T17:15:33;11.02;;;1.40;;
68800;SDS011;55784;50.734;7.086;2023-01-30T17:17:59;11.98;;;1.83;;
68800;SDS011;55784;50.734;7.086;2023-01-30T17:20:34;11.57;;;1.77;;
68800;SDS011;55784;50.734;7.086;2023-01-30T17:23:03;14.67;;;2.17;;
68800;SDS011;55784;50.734;7.086;2023-01-30T17:25:40;10.30;;;1.75;;
68800;SDS011;55784;50.734;7.086;2023-01-30T17:28:10;14.40;;;1.70;;
68800;SDS011;55784;50.734;7.086;2023-01-30T17:30:41;13.52;;;2.17;;
68800;SDS011;55784;50.734;7.086;2023-01-30T17:33:07;16.53;;;2.00;;
68800;SDS011;55784;50.734;7.086;2023-01-30T17:35:32;10.43;;;1.83;;
68800;SDS011;55784;50.734;7.086;2023-01-30T17:38:01;10.93;;;1.50;;
68800;SDS011;55784;50.734;7.086;2023-01-30T17:40:31;14.53;;;2.20;;
68800;SDS011;55784;50.734;7.086;2023-01-30T17:42:58;16.42;;;2.83;;
68800;SDS011;55784;50.734;7.086;2023-01-30T17:45:24;12.70;;;1.77;;
68800;SDS011;55784;50.734;7.086;2023-01-30T17:47:49;12.23;;;2.20;;
68800;SDS011;55784;50.734;7.086;2023-01-30T17:50:14;14.73;;;2.05;;
68800;SDS011;55784;50.734;7.086;2023-01-30T17:52:40;11.43;;;1.92;;
68800;SDS011;55784;50.734;7.086;2023-01-30T17:55:05;11.77;;;1.70;;
68800;SDS011;55784;50.734;7.086;2023-01-30T17:57:32;12.25;;;1.80;;
68800;SDS011;55784;50.734;7.086;2023-01-30T18:00:00;14.45;;;2.10;;
68800;SDS011;55784;50.734;7.086;2023-01-30T18:02:25;15.43;;;2.07;;
68800;SDS011;55784;50.734;7.086;2023-01-30T18:04:52;21.80;;;1.95;;
68800;SDS011;55784;50.734;7.086;2023-01-30T18:07:17;14.57;;;1.70;;
68800;SDS011;55784;50.734;7.086;2023-01-30T18:10:00;10.13;;;1.65;;
68800;SDS011;55784;50.734;7.086;2023-01-30T18:12:28;12.93;;;1.73;;
68800;SDS011;55784;50.734;7.086;2023-01-30T18:14:57;14.10;;;2.00;;
68800;SDS011;55784;50.734;7.086;2023-01-30T18:17:22;13.32;;;1.70;;
68800;SDS011;55784;50.734;7.086;2023-01-30T18:19:55;13.95;;;1.92;;
68800;SDS011;55784;50.734;7.086;2023-01-30T18:22:20;15.32;;;1.83;;
68800;SDS011;55784;50.734;7.086;2023-01-30T18:24:46;14.00;;;2.20;;